This is the latest recevied weather packets stored in our database for station/object AA7F. If no packets are shown the sender has not sent any weather packets the latest 10 day(s).
| Time | Temp. | Humidity | Pressure | Rain* | Wind** | Luminosity | Snow |
|---|---|---|---|---|---|---|---|
| 1777308799 | 11.11° C | 65% | 1013.8 hPa | 0 mm | - | 642 W/m² | - |
| 1777307885 | 10.56° C | 67% | 1013.7 hPa | 0 mm | - | 607 W/m² | - |
| 1777307584 | 10° C | 67% | 1013.8 hPa | 0 mm | - | 574 W/m² | - |
| 1777307280 | 10° C | 69% | 1013.7 hPa | 0 mm | - | 570 W/m² | - |
| 1777305459 | 7.78° C | 73% | 1013.8 hPa | 0 mm | - | 407 W/m² | - |
| 1777304854 | 7.22° C | 74% | 1014 hPa | 0 mm | - | 341 W/m² | - |
| 1777304248 | 7.22° C | 75% | 1013.8 hPa | 0 mm | - | 322 W/m² | - |
| 1777303945 | 6.67° C | 77% | 1013.6 hPa | 0 mm | - | 328 W/m² | - |
| 1777303642 | 6.67° C | 78% | 1013.7 hPa | 0 mm | - | 296 W/m² | - |
| 1777303340 | 6.11° C | 79% | 1013.7 hPa | 0 mm | - | 298 W/m² | - |
| 1777301525 | 4.44° C | 84% | 1014.1 hPa | 0 mm | - | 159 W/m² | - |
| 1777300616 | 4.44° C | 84% | 1013.7 hPa | 0 mm | - | 135 W/m² | - |
| 1777300313 | 4.44° C | 85% | 1013.7 hPa | 0 mm | - | 145 W/m² | - |
| 1777300010 | 3.89° C | 85% | 1014.1 hPa | 0 mm | - | 124 W/m² | - |
| 1777299706 | 3.89° C | 85% | 1013.7 hPa | 0 mm | - | 140 W/m² | - |
| 1777299404 | 3.89° C | 86% | 1013.7 hPa | 0 mm | - | 143 W/m² | - |
| 1777299102 | 3.89° C | 87% | 1013.8 hPa | 0 mm | - | 135 W/m² | - |
| 1777298799 | 2.78° C | 90% | 1013.8 hPa | 0 mm | - | 90 W/m² | - |
| 1777298495 | 2.78° C | 90% | 1013.5 hPa | 0 mm | - | 78 W/m² | - |
| 1777298192 | 2.78° C | 90% | 1013.5 hPa | 0 mm | - | 73 W/m² | - |
| 1777297887 | 2.78° C | 90% | 1013.5 hPa | 0 mm | - | 69 W/m² | - |
| 1777296978 | 1.67° C | 92% | 1013.5 hPa | 0 mm | - | 48 W/m² | - |
| 1777296675 | 1.67° C | 92% | 1013.3 hPa | 0 mm | - | 41 W/m² | - |
| 1777296051 | 1.67° C | 93% | 1013.2 hPa | 0 mm | - | 29 W/m² | - |
| 1777295748 | 1.67° C | 93% | 1012.9 hPa | 0 mm | - | 26 W/m² | - |
* Rain latest hour (hover to see other rain measurements)
** Current wind speed in m/s (hover to see current wind gust speed)